Abbott, New Mexico
Current Conditions -  °F | °C
As of 1:53 AM on Friday 31 Oct 2014 (Local Time) from KRTN Reporting Station
Clear Clear  
Wind Chill: 38°   Ceiling: Unl
Heat Index: 38°   Visibility: 10mi
Dew Point: 22°   Wind: 0mph
Humidity: 53%   Direction: NA
Pressure: 30.45"   Gusts: NA
Location:  36.3883°N, 104.381°W
Report Text: KRTN 310753Z AUTO 00000KT 10SM CLR 03/M06 A3045 RMK AO2 SLP266 T00331056
Loading
Personal Weather Stations






























Interactive Weather Map
Tropical Storm Tracking
New forecast layout! Learn more

10-Day Weather Forecast

Advertisements
Track Severe Weather on mobile